sensor_id;sensor_type;location;lat;lon;timestamp;P1;durP1;ratioP1;P2;durP2;ratioP2
22963;SDS011;11648;49.306;6.934;2023-04-23T00:02:01;5.73;;;4.70;;
22963;SDS011;11648;49.306;6.934;2023-04-23T00:04:29;5.50;;;4.17;;
22963;SDS011;11648;49.306;6.934;2023-04-23T00:07:02;5.63;;;4.47;;
22963;SDS011;11648;49.306;6.934;2023-04-23T00:09:29;5.47;;;3.90;;
22963;SDS011;11648;49.306;6.934;2023-04-23T00:11:58;7.77;;;4.80;;
22963;SDS011;11648;49.306;6.934;2023-04-23T00:14:27;5.27;;;3.77;;
22963;SDS011;11648;49.306;6.934;2023-04-23T00:16:54;6.17;;;3.30;;
22963;SDS011;11648;49.306;6.934;2023-04-23T00:19:21;5.40;;;4.50;;
22963;SDS011;11648;49.306;6.934;2023-04-23T00:21:48;5.37;;;3.87;;
22963;SDS011;11648;49.306;6.934;2023-04-23T00:24:14;5.80;;;3.53;;
22963;SDS011;11648;49.306;6.934;2023-04-23T00:26:41;5.33;;;4.20;;
22963;SDS011;11648;49.306;6.934;2023-04-23T00:29:08;8.53;;;3.93;;
22963;SDS011;11648;49.306;6.934;2023-04-23T00:31:35;7.73;;;4.00;;
22963;SDS011;11648;49.306;6.934;2023-04-23T00:34:01;6.37;;;4.80;;
22963;SDS011;11648;49.306;6.934;2023-04-23T00:36:28;6.50;;;4.30;;
22963;SDS011;11648;49.306;6.934;2023-04-23T00:38:56;6.30;;;4.53;;
22963;SDS011;11648;49.306;6.934;2023-04-23T00:41:22;7.03;;;4.60;;
22963;SDS011;11648;49.306;6.934;2023-04-23T00:43:50;6.17;;;4.30;;
22963;SDS011;11648;49.306;6.934;2023-04-23T00:46:18;5.60;;;4.57;;
22963;SDS011;11648;49.306;6.934;2023-04-23T00:48:46;6.40;;;4.67;;
22963;SDS011;11648;49.306;6.934;2023-04-23T00:51:13;7.63;;;5.20;;
22963;SDS011;11648;49.306;6.934;2023-04-23T00:53:42;5.90;;;4.57;;
22963;SDS011;11648;49.306;6.934;2023-04-23T00:56:08;7.13;;;4.93;;
22963;SDS011;11648;49.306;6.934;2023-04-23T00:58:36;7.97;;;5.40;;
22963;SDS011;11648;49.306;6.934;2023-04-23T01:01:03;6.73;;;4.53;;
22963;SDS011;11648;49.306;6.934;2023-04-23T01:03:30;6.67;;;5.00;;
22963;SDS011;11648;49.306;6.934;2023-04-23T01:06:02;6.03;;;5.10;;
22963;SDS011;11648;49.306;6.934;2023-04-23T01:08:29;7.23;;;5.53;;
22963;SDS011;11648;49.306;6.934;2023-04-23T01:10:57;6.73;;;5.33;;
22963;SDS011;11648;49.306;6.934;2023-04-23T01:13:25;6.63;;;4.60;;
22963;SDS011;11648;49.306;6.934;2023-04-23T01:15:55;7.23;;;5.03;;
22963;SDS011;11648;49.306;6.934;2023-04-23T01:18:22;7.13;;;5.37;;
22963;SDS011;11648;49.306;6.934;2023-04-23T01:20:50;6.63;;;5.40;;
22963;SDS011;11648;49.306;6.934;2023-04-23T01:23:16;6.77;;;5.10;;
22963;SDS011;11648;49.306;6.934;2023-04-23T01:25:44;6.90;;;5.63;;
22963;SDS011;11648;49.306;6.934;2023-04-23T01:28:11;6.43;;;5.47;;
22963;SDS011;11648;49.306;6.934;2023-04-23T01:30:40;8.40;;;6.10;;
22963;SDS011;11648;49.306;6.934;2023-04-23T01:33:09;7.33;;;5.27;;
22963;SDS011;11648;49.306;6.934;2023-04-23T01:35:36;7.53;;;5.40;;
22963;SDS011;11648;49.306;6.934;2023-04-23T01:38:04;7.80;;;5.87;;
22963;SDS011;11648;49.306;6.934;2023-04-23T01:40:34;6.87;;;5.30;;
22963;SDS011;11648;49.306;6.934;2023-04-23T01:43:02;8.20;;;5.63;;
22963;SDS011;11648;49.306;6.934;2023-04-23T01:45:30;6.47;;;5.20;;
22963;SDS011;11648;49.306;6.934;2023-04-23T01:47:58;6.93;;;5.70;;
22963;SDS011;11648;49.306;6.934;2023-04-23T01:50:25;5.80;;;4.67;;
22963;SDS011;11648;49.306;6.934;2023-04-23T01:52:54;6.33;;;5.00;;
22963;SDS011;11648;49.306;6.934;2023-04-23T01:55:21;6.33;;;5.03;;
22963;SDS011;11648;49.306;6.934;2023-04-23T01:57:49;7.20;;;5.17;;
22963;SDS011;11648;49.306;6.934;2023-04-23T02:00:16;6.97;;;5.40;;
22963;SDS011;11648;49.306;6.934;2023-04-23T02:02:44;6.23;;;5.07;;
22963;SDS011;11648;49.306;6.934;2023-04-23T02:05:12;5.90;;;5.30;;
22963;SDS011;11648;49.306;6.934;2023-04-23T02:07:41;5.30;;;4.50;;
22963;SDS011;11648;49.306;6.934;2023-04-23T02:10:09;9.57;;;6.33;;
22963;SDS011;11648;49.306;6.934;2023-04-23T02:12:37;5.80;;;4.90;;
22963;SDS011;11648;49.306;6.934;2023-04-23T02:15:04;5.70;;;4.47;;
22963;SDS011;11648;49.306;6.934;2023-04-23T02:17:32;6.33;;;4.13;;
22963;SDS011;11648;49.306;6.934;2023-04-23T02:19:59;7.53;;;4.80;;
22963;SDS011;11648;49.306;6.934;2023-04-23T02:22:27;4.93;;;4.37;;
22963;SDS011;11648;49.306;6.934;2023-04-23T02:24:53;6.90;;;5.17;;
22963;SDS011;11648;49.306;6.934;2023-04-23T02:27:20;6.20;;;5.00;;
22963;SDS011;11648;49.306;6.934;2023-04-23T02:29:47;7.03;;;4.67;;
22963;SDS011;11648;49.306;6.934;2023-04-23T02:32:14;7.33;;;4.50;;
22963;SDS011;11648;49.306;6.934;2023-04-23T02:34:41;6.90;;;5.10;;
22963;SDS011;11648;49.306;6.934;2023-04-23T02:37:08;6.63;;;5.13;;
22963;SDS011;11648;49.306;6.934;2023-04-23T02:39:35;7.33;;;5.00;;
22963;SDS011;11648;49.306;6.934;2023-04-23T02:42:04;6.03;;;4.73;;
22963;SDS011;11648;49.306;6.934;2023-04-23T02:44:31;7.60;;;5.13;;
22963;SDS011;11648;49.306;6.934;2023-04-23T02:46:59;6.97;;;4.50;;
22963;SDS011;11648;49.306;6.934;2023-04-23T02:49:25;5.87;;;4.80;;
22963;SDS011;11648;49.306;6.934;2023-04-23T02:51:52;6.00;;;4.97;;
22963;SDS011;11648;49.306;6.934;2023-04-23T02:54:19;6.00;;;4.53;;
22963;SDS011;11648;49.306;6.934;2023-04-23T02:56:46;4.97;;;4.47;;
22963;SDS011;11648;49.306;6.934;2023-04-23T02:59:13;6.10;;;4.50;;
22963;SDS011;11648;49.306;6.934;2023-04-23T03:01:39;4.77;;;4.07;;
22963;SDS011;11648;49.306;6.934;2023-04-23T03:04:08;6.87;;;4.30;;
22963;SDS011;11648;49.306;6.934;2023-04-23T03:06:35;5.10;;;3.90;;
22963;SDS011;11648;49.306;6.934;2023-04-23T03:09:02;4.97;;;4.17;;
22963;SDS011;11648;49.306;6.934;2023-04-23T03:11:30;4.80;;;3.80;;
22963;SDS011;11648;49.306;6.934;2023-04-23T03:13:57;4.53;;;3.83;;
22963;SDS011;11648;49.306;6.934;2023-04-23T03:16:23;5.23;;;4.00;;
22963;SDS011;11648;49.306;6.934;2023-04-23T03:18:52;5.40;;;4.57;;
22963;SDS011;11648;49.306;6.934;2023-04-23T03:21:19;6.23;;;4.30;;
22963;SDS011;11648;49.306;6.934;2023-04-23T03:23:45;6.93;;;4.90;;
22963;SDS011;11648;49.306;6.934;2023-04-23T03:26:12;8.03;;;5.17;;
22963;SDS011;11648;49.306;6.934;2023-04-23T03:28:39;5.53;;;4.87;;
22963;SDS011;11648;49.306;6.934;2023-04-23T03:31:06;7.30;;;5.37;;
22963;SDS011;11648;49.306;6.934;2023-04-23T03:33:32;8.57;;;5.30;;
22963;SDS011;11648;49.306;6.934;2023-04-23T03:35:59;7.10;;;5.13;;
22963;SDS011;11648;49.306;6.934;2023-04-23T03:38:29;6.10;;;4.90;;
22963;SDS011;11648;49.306;6.934;2023-04-23T03:40:57;6.43;;;5.23;;
22963;SDS011;11648;49.306;6.934;2023-04-23T03:43:24;6.97;;;5.17;;
22963;SDS011;11648;49.306;6.934;2023-04-23T03:46:10;8.43;;;5.70;;
22963;SDS011;11648;49.306;6.934;2023-04-23T03:48:40;7.60;;;5.87;;
22963;SDS011;11648;49.306;6.934;2023-04-23T03:51:16;7.70;;;6.20;;
22963;SDS011;11648;49.306;6.934;2023-04-23T03:53:47;8.93;;;5.97;;
22963;SDS011;11648;49.306;6.934;2023-04-23T03:56:43;8.03;;;7.23;;
22963;SDS011;11648;49.306;6.934;2023-04-23T03:59:10;9.27;;;7.47;;
22963;SDS011;11648;49.306;6.934;2023-04-23T04:01:37;9.10;;;8.20;;
22963;SDS011;11648;49.306;6.934;2023-04-23T04:04:04;9.13;;;8.20;;
22963;SDS011;11648;49.306;6.934;2023-04-23T04:06:31;13.07;;;9.27;;
22963;SDS011;11648;49.306;6.934;2023-04-23T04:08:58;10.90;;;9.90;;
22963;SDS011;11648;49.306;6.934;2023-04-23T04:11:25;11.10;;;10.00;;
22963;SDS011;11648;49.306;6.934;2023-04-23T04:13:52;10.50;;;9.50;;
22963;SDS011;11648;49.306;6.934;2023-04-23T04:16:18;11.30;;;10.10;;
22963;SDS011;11648;49.306;6.934;2023-04-23T04:18:45;11.20;;;9.53;;
22963;SDS011;11648;49.306;6.934;2023-04-23T04:21:12;11.10;;;9.07;;
22963;SDS011;11648;49.306;6.934;2023-04-23T04:23:38;10.67;;;9.53;;
22963;SDS011;11648;49.306;6.934;2023-04-23T04:26:05;11.17;;;9.97;;
22963;SDS011;11648;49.306;6.934;2023-04-23T04:28:33;11.30;;;10.07;;
22963;SDS011;11648;49.306;6.934;2023-04-23T04:31:02;11.50;;;10.20;;
22963;SDS011;11648;49.306;6.934;2023-04-23T04:33:31;10.87;;;9.67;;
22963;SDS011;11648;49.306;6.934;2023-04-23T04:36:00;11.57;;;10.47;;
22963;SDS011;11648;49.306;6.934;2023-04-23T04:38:27;11.47;;;10.23;;
22963;SDS011;11648;49.306;6.934;2023-04-23T04:40:55;10.40;;;9.40;;
22963;SDS011;11648;49.306;6.934;2023-04-23T04:43:25;10.83;;;9.47;;
22963;SDS011;11648;49.306;6.934;2023-04-23T04:45:52;11.47;;;9.97;;
22963;SDS011;11648;49.306;6.934;2023-04-23T04:48:19;11.17;;;10.07;;
22963;SDS011;11648;49.306;6.934;2023-04-23T04:50:46;12.03;;;9.40;;
22963;SDS011;11648;49.306;6.934;2023-04-23T04:53:13;9.87;;;8.97;;
22963;SDS011;11648;49.306;6.934;2023-04-23T04:55:40;10.20;;;8.47;;
22963;SDS011;11648;49.306;6.934;2023-04-23T04:58:06;10.90;;;9.30;;
22963;SDS011;11648;49.306;6.934;2023-04-23T05:00:33;9.97;;;9.07;;
22963;SDS011;11648;49.306;6.934;2023-04-23T05:03:00;10.90;;;8.80;;
22963;SDS011;11648;49.306;6.934;2023-04-23T05:05:27;11.27;;;10.07;;
22963;SDS011;11648;49.306;6.934;2023-04-23T05:07:53;10.43;;;9.17;;
22963;SDS011;11648;49.306;6.934;2023-04-23T05:10:20;9.80;;;8.80;;
22963;SDS011;11648;49.306;6.934;2023-04-23T05:12:47;11.10;;;9.90;;
22963;SDS011;11648;49.306;6.934;2023-04-23T05:15:13;10.43;;;9.43;;
22963;SDS011;11648;49.306;6.934;2023-04-23T05:17:41;11.83;;;9.90;;
22963;SDS011;11648;49.306;6.934;2023-04-23T05:20:08;9.93;;;8.90;;
22963;SDS011;11648;49.306;6.934;2023-04-23T05:22:39;9.90;;;8.90;;
22963;SDS011;11648;49.306;6.934;2023-04-23T05:25:08;9.97;;;8.93;;
22963;SDS011;11648;49.306;6.934;2023-04-23T05:27:35;9.27;;;8.37;;
22963;SDS011;11648;49.306;6.934;2023-04-23T05:30:03;10.10;;;9.10;;
22963;SDS011;11648;49.306;6.934;2023-04-23T05:32:31;10.43;;;8.90;;
22963;SDS011;11648;49.306;6.934;2023-04-23T05:34:59;8.90;;;8.00;;
22963;SDS011;11648;49.306;6.934;2023-04-23T05:37:29;9.27;;;7.93;;
22963;SDS011;11648;49.306;6.934;2023-04-23T05:39:56;8.00;;;6.90;;
22963;SDS011;11648;49.306;6.934;2023-04-23T05:42:26;8.10;;;7.30;;
22963;SDS011;11648;49.306;6.934;2023-04-23T05:44:52;7.40;;;6.67;;
22963;SDS011;11648;49.306;6.934;2023-04-23T05:47:19;9.33;;;7.77;;
22963;SDS011;11648;49.306;6.934;2023-04-23T05:49:46;8.40;;;7.50;;
22963;SDS011;11648;49.306;6.934;2023-04-23T05:52:13;8.27;;;7.47;;
22963;SDS011;11648;49.306;6.934;2023-04-23T05:54:40;8.20;;;7.30;;
22963;SDS011;11648;49.306;6.934;2023-04-23T05:57:08;7.87;;;7.17;;
22963;SDS011;11648;49.306;6.934;2023-04-23T05:59:34;10.73;;;7.20;;
22963;SDS011;11648;49.306;6.934;2023-04-23T06:02:01;10.53;;;7.03;;
22963;SDS011;11648;49.306;6.934;2023-04-23T06:04:28;8.97;;;6.53;;
22963;SDS011;11648;49.306;6.934;2023-04-23T06:06:55;7.83;;;7.03;;
22963;SDS011;11648;49.306;6.934;2023-04-23T06:09:22;8.23;;;7.43;;
22963;SDS011;11648;49.306;6.934;2023-04-23T06:11:48;8.93;;;6.63;;
22963;SDS011;11648;49.306;6.934;2023-04-23T06:14:17;8.00;;;6.63;;
22963;SDS011;11648;49.306;6.934;2023-04-23T06:16:44;7.97;;;7.10;;
22963;SDS011;11648;49.306;6.934;2023-04-23T06:19:11;7.80;;;6.93;;
22963;SDS011;11648;49.306;6.934;2023-04-23T06:21:38;8.17;;;6.30;;
22963;SDS011;11648;49.306;6.934;2023-04-23T06:24:05;7.43;;;6.50;;
22963;SDS011;11648;49.306;6.934;2023-04-23T06:26:33;8.33;;;6.20;;
22963;SDS011;11648;49.306;6.934;2023-04-23T06:29:08;7.93;;;5.70;;
22963;SDS011;11648;49.306;6.934;2023-04-23T06:32:00;8.03;;;5.40;;
22963;SDS011;11648;49.306;6.934;2023-04-23T06:34:27;7.07;;;5.97;;
22963;SDS011;11648;49.306;6.934;2023-04-23T06:36:55;7.83;;;6.50;;
22963;SDS011;11648;49.306;6.934;2023-04-23T06:39:22;6.60;;;5.00;;
22963;SDS011;11648;49.306;6.934;2023-04-23T06:41:49;10.17;;;8.10;;
22963;SDS011;11648;49.306;6.934;2023-04-23T06:44:32;9.13;;;6.53;;
22963;SDS011;11648;49.306;6.934;2023-04-23T06:47:00;9.07;;;5.97;;
22963;SDS011;11648;49.306;6.934;2023-04-23T06:49:27;8.77;;;6.03;;
22963;SDS011;11648;49.306;6.934;2023-04-23T06:51:54;8.80;;;6.10;;
22963;SDS011;11648;49.306;6.934;2023-04-23T06:54:23;7.40;;;5.70;;
22963;SDS011;11648;49.306;6.934;2023-04-23T06:56:49;7.10;;;5.50;;
22963;SDS011;11648;49.306;6.934;2023-04-23T06:59:16;8.13;;;5.37;;
22963;SDS011;11648;49.306;6.934;2023-04-23T07:01:46;9.60;;;6.03;;
22963;SDS011;11648;49.306;6.934;2023-04-23T07:04:12;7.63;;;5.30;;
22963;SDS011;11648;49.306;6.934;2023-04-23T07:06:39;8.73;;;5.90;;
22963;SDS011;11648;49.306;6.934;2023-04-23T07:09:06;6.30;;;5.60;;
22963;SDS011;11648;49.306;6.934;2023-04-23T07:11:32;9.50;;;5.60;;
22963;SDS011;11648;49.306;6.934;2023-04-23T07:14:02;8.03;;;5.00;;
22963;SDS011;11648;49.306;6.934;2023-04-23T07:16:29;10.87;;;6.20;;
22963;SDS011;11648;49.306;6.934;2023-04-23T07:18:59;7.57;;;5.23;;
22963;SDS011;11648;49.306;6.934;2023-04-23T07:21:27;6.87;;;5.47;;
22963;SDS011;11648;49.306;6.934;2023-04-23T07:23:55;11.70;;;6.53;;
22963;SDS011;11648;49.306;6.934;2023-04-23T07:26:23;8.80;;;4.93;;
22963;SDS011;11648;49.306;6.934;2023-04-23T07:28:50;5.70;;;5.07;;
22963;SDS011;11648;49.306;6.934;2023-04-23T07:31:18;7.10;;;5.27;;
22963;SDS011;11648;49.306;6.934;2023-04-23T07:33:46;7.93;;;4.77;;
22963;SDS011;11648;49.306;6.934;2023-04-23T07:36:13;6.47;;;4.67;;
22963;SDS011;11648;49.306;6.934;2023-04-23T07:38:39;6.13;;;4.30;;
22963;SDS011;11648;49.306;6.934;2023-04-23T07:41:06;6.03;;;4.67;;
22963;SDS011;11648;49.306;6.934;2023-04-23T07:43:33;5.83;;;4.07;;
22963;SDS011;11648;49.306;6.934;2023-04-23T07:46:00;6.47;;;4.33;;
22963;SDS011;11648;49.306;6.934;2023-04-23T07:48:27;5.93;;;4.10;;
22963;SDS011;11648;49.306;6.934;2023-04-23T07:50:53;5.10;;;3.80;;
22963;SDS011;11648;49.306;6.934;2023-04-23T07:53:20;5.13;;;3.60;;
22963;SDS011;11648;49.306;6.934;2023-04-23T07:55:48;8.73;;;3.70;;
22963;SDS011;11648;49.306;6.934;2023-04-23T07:58:14;5.70;;;3.80;;
22963;SDS011;11648;49.306;6.934;2023-04-23T08:00:41;5.40;;;3.37;;
22963;SDS011;11648;49.306;6.934;2023-04-23T08:03:08;5.87;;;3.13;;
22963;SDS011;11648;49.306;6.934;2023-04-23T08:05:34;5.93;;;3.30;;
22963;SDS011;11648;49.306;6.934;2023-04-23T08:08:03;5.53;;;3.03;;
22963;SDS011;11648;49.306;6.934;2023-04-23T08:10:30;7.00;;;3.60;;
22963;SDS011;11648;49.306;6.934;2023-04-23T08:12:57;5.37;;;3.30;;
22963;SDS011;11648;49.306;6.934;2023-04-23T08:15:24;6.07;;;3.30;;
22963;SDS011;11648;49.306;6.934;2023-04-23T08:17:50;5.00;;;3.20;;
22963;SDS011;11648;49.306;6.934;2023-04-23T08:20:17;7.13;;;3.20;;
22963;SDS011;11648;49.306;6.934;2023-04-23T08:22:44;5.70;;;3.70;;
22963;SDS011;11648;49.306;6.934;2023-04-23T08:25:11;7.00;;;3.57;;
22963;SDS011;11648;49.306;6.934;2023-04-23T08:27:38;8.77;;;5.77;;
22963;SDS011;11648;49.306;6.934;2023-04-23T08:30:05;11.83;;;7.23;;
22963;SDS011;11648;49.306;6.934;2023-04-23T08:32:33;6.97;;;5.70;;
22963;SDS011;11648;49.306;6.934;2023-04-23T08:35:00;14.63;;;9.20;;
22963;SDS011;11648;49.306;6.934;2023-04-23T08:37:27;13.53;;;8.30;;
22963;SDS011;11648;49.306;6.934;2023-04-23T08:39:57;24.27;;;12.63;;
22963;SDS011;11648;49.306;6.934;2023-04-23T08:42:36;11.80;;;8.10;;
22963;SDS011;11648;49.306;6.934;2023-04-23T08:45:22;21.10;;;12.20;;
22963;SDS011;11648;49.306;6.934;2023-04-23T08:47:50;8.83;;;5.30;;
22963;SDS011;11648;49.306;6.934;2023-04-23T08:50:17;7.93;;;5.07;;
22963;SDS011;11648;49.306;6.934;2023-04-23T08:52:49;8.53;;;5.30;;
22963;SDS011;11648;49.306;6.934;2023-04-23T08:55:21;11.67;;;6.37;;
22963;SDS011;11648;49.306;6.934;2023-04-23T08:57:48;20.67;;;11.87;;
22963;SDS011;11648;49.306;6.934;2023-04-23T09:00:16;10.93;;;6.20;;
22963;SDS011;11648;49.306;6.934;2023-04-23T09:02:46;6.70;;;4.70;;
22963;SDS011;11648;49.306;6.934;2023-04-23T09:05:14;7.17;;;4.77;;
22963;SDS011;11648;49.306;6.934;2023-04-23T09:07:42;7.60;;;4.80;;
22963;SDS011;11648;49.306;6.934;2023-04-23T09:10:10;11.10;;;6.60;;
22963;SDS011;11648;49.306;6.934;2023-04-23T09:12:41;6.50;;;3.97;;
22963;SDS011;11648;49.306;6.934;2023-04-23T09:15:09;12.47;;;6.73;;
22963;SDS011;11648;49.306;6.934;2023-04-23T09:17:38;5.73;;;3.00;;
22963;SDS011;11648;49.306;6.934;2023-04-23T09:20:06;6.57;;;3.10;;
22963;SDS011;11648;49.306;6.934;2023-04-23T09:25:14;4.53;;;3.20;;
22963;SDS011;11648;49.306;6.934;2023-04-23T09:27:46;4.37;;;2.57;;
22963;SDS011;11648;49.306;6.934;2023-04-23T09:30:14;4.97;;;3.43;;
22963;SDS011;11648;49.306;6.934;2023-04-23T09:32:42;5.67;;;3.20;;
22963;SDS011;11648;49.306;6.934;2023-04-23T09:35:15;3.83;;;2.07;;
22963;SDS011;11648;49.306;6.934;2023-04-23T09:37:46;5.73;;;2.47;;
22963;SDS011;11648;49.306;6.934;2023-04-23T09:40:17;4.60;;;2.27;;
22963;SDS011;11648;49.306;6.934;2023-04-23T09:42:46;3.83;;;2.20;;
22963;SDS011;11648;49.306;6.934;2023-04-23T09:45:15;4.10;;;2.30;;
22963;SDS011;11648;49.306;6.934;2023-04-23T09:50:17;4.30;;;1.77;;
22963;SDS011;11648;49.306;6.934;2023-04-23T09:53:01;4.33;;;1.73;;
22963;SDS011;11648;49.306;6.934;2023-04-23T09:55:38;4.07;;;1.93;;
22963;SDS011;11648;49.306;6.934;2023-04-23T09:58:13;4.47;;;2.00;;
22963;SDS011;11648;49.306;6.934;2023-04-23T10:00:41;5.47;;;2.47;;
22963;SDS011;11648;49.306;6.934;2023-04-23T10:03:08;4.97;;;2.17;;
22963;SDS011;11648;49.306;6.934;2023-04-23T10:05:40;3.83;;;2.10;;
22963;SDS011;11648;49.306;6.934;2023-04-23T10:08:11;3.70;;;1.90;;
22963;SDS011;11648;49.306;6.934;2023-04-23T10:10:39;4.93;;;1.90;;
22963;SDS011;11648;49.306;6.934;2023-04-23T10:13:25;2.97;;;1.80;;
22963;SDS011;11648;49.306;6.934;2023-04-23T10:15:52;4.10;;;2.27;;
22963;SDS011;11648;49.306;6.934;2023-04-23T10:18:20;3.57;;;1.80;;
22963;SDS011;11648;49.306;6.934;2023-04-23T10:20:48;4.90;;;2.10;;
22963;SDS011;11648;49.306;6.934;2023-04-23T10:23:15;3.70;;;1.80;;
22963;SDS011;11648;49.306;6.934;2023-04-23T10:25:44;5.17;;;2.10;;
22963;SDS011;11648;49.306;6.934;2023-04-23T10:28:13;2.80;;;1.50;;
22963;SDS011;11648;49.306;6.934;2023-04-23T10:30:47;3.07;;;1.80;;
22963;SDS011;11648;49.306;6.934;2023-04-23T10:33:15;2.93;;;1.80;;
22963;SDS011;11648;49.306;6.934;2023-04-23T10:35:56;4.27;;;1.90;;
22963;SDS011;11648;49.306;6.934;2023-04-23T10:38:23;3.50;;;1.80;;
22963;SDS011;11648;49.306;6.934;2023-04-23T10:40:54;4.13;;;1.80;;
22963;SDS011;11648;49.306;6.934;2023-04-23T10:43:24;4.60;;;1.80;;
22963;SDS011;11648;49.306;6.934;2023-04-23T10:45:51;3.13;;;1.57;;
22963;SDS011;11648;49.306;6.934;2023-04-23T10:48:19;3.03;;;1.40;;
22963;SDS011;11648;49.306;6.934;2023-04-23T10:50:46;2.80;;;1.50;;
22963;SDS011;11648;49.306;6.934;2023-04-23T10:53:43;4.10;;;1.30;;
22963;SDS011;11648;49.306;6.934;2023-04-23T10:56:11;2.73;;;1.13;;
22963;SDS011;11648;49.306;6.934;2023-04-23T10:58:47;3.00;;;1.40;;
22963;SDS011;11648;49.306;6.934;2023-04-23T11:01:18;4.87;;;1.43;;
22963;SDS011;11648;49.306;6.934;2023-04-23T11:03:47;3.27;;;1.40;;
22963;SDS011;11648;49.306;6.934;2023-04-23T11:06:18;2.45;;;1.17;;
22963;SDS011;11648;49.306;6.934;2023-04-23T11:09:26;2.30;;;1.23;;
22963;SDS011;11648;49.306;6.934;2023-04-23T11:11:54;2.78;;;1.30;;
22963;SDS011;11648;49.306;6.934;2023-04-23T11:14:21;3.13;;;1.25;;
22963;SDS011;11648;49.306;6.934;2023-04-23T11:17:00;2.80;;;1.00;;
22963;SDS011;11648;49.306;6.934;2023-04-23T11:19:28;1.67;;;1.00;;
22963;SDS011;11648;49.306;6.934;2023-04-23T11:24:25;2.50;;;0.95;;
22963;SDS011;11648;49.306;6.934;2023-04-23T11:27:17;2.08;;;0.90;;
22963;SDS011;11648;49.306;6.934;2023-04-23T11:29:45;2.50;;;1.10;;
22963;SDS011;11648;49.306;6.934;2023-04-23T11:32:15;2.60;;;1.10;;
22963;SDS011;11648;49.306;6.934;2023-04-23T11:34:43;1.83;;;1.00;;
22963;SDS011;11648;49.306;6.934;2023-04-23T11:37:14;2.45;;;1.00;;
22963;SDS011;11648;49.306;6.934;2023-04-23T11:39:43;1.80;;;1.10;;
22963;SDS011;11648;49.306;6.934;2023-04-23T11:42:11;4.38;;;1.08;;
22963;SDS011;11648;49.306;6.934;2023-04-23T11:44:40;1.60;;;1.00;;
22963;SDS011;11648;49.306;6.934;2023-04-23T11:47:12;1.83;;;1.00;;
22963;SDS011;11648;49.306;6.934;2023-04-23T11:49:40;1.75;;;0.80;;
22963;SDS011;11648;49.306;6.934;2023-04-23T11:52:10;1.73;;;1.17;;
22963;SDS011;11648;49.306;6.934;2023-04-23T11:54:39;2.83;;;1.30;;
22963;SDS011;11648;49.306;6.934;2023-04-23T11:57:07;2.83;;;1.10;;
22963;SDS011;11648;49.306;6.934;2023-04-23T11:59:34;2.33;;;0.90;;
22963;SDS011;11648;49.306;6.934;2023-04-23T12:02:00;3.78;;;1.00;;
22963;SDS011;11648;49.306;6.934;2023-04-23T12:04:28;3.70;;;0.98;;
22963;SDS011;11648;49.306;6.934;2023-04-23T12:06:56;2.72;;;1.05;;
22963;SDS011;11648;49.306;6.934;2023-04-23T12:09:25;3.17;;;1.10;;
22963;SDS011;11648;49.306;6.934;2023-04-23T12:11:53;3.05;;;1.00;;
22963;SDS011;11648;49.306;6.934;2023-04-23T12:14:28;1.88;;;0.90;;
22963;SDS011;11648;49.306;6.934;2023-04-23T12:16:56;3.25;;;0.80;;
22963;SDS011;11648;49.306;6.934;2023-04-23T12:19:25;1.17;;;0.70;;
22963;SDS011;11648;49.306;6.934;2023-04-23T12:21:57;2.17;;;0.90;;
22963;SDS011;11648;49.306;6.934;2023-04-23T12:24:40;1.80;;;0.70;;
22963;SDS011;11648;49.306;6.934;2023-04-23T12:27:15;3.53;;;0.98;;
22963;SDS011;11648;49.306;6.934;2023-04-23T12:29:45;2.85;;;0.80;;
22963;SDS011;11648;49.306;6.934;2023-04-23T12:32:13;3.10;;;0.93;;
22963;SDS011;11648;49.306;6.934;2023-04-23T12:34:53;2.70;;;0.88;;
22963;SDS011;11648;49.306;6.934;2023-04-23T12:37:24;3.00;;;0.90;;
22963;SDS011;11648;49.306;6.934;2023-04-23T12:39:55;1.40;;;0.70;;
22963;SDS011;11648;49.306;6.934;2023-04-23T12:42:25;2.15;;;0.90;;
22963;SDS011;11648;49.306;6.934;2023-04-23T12:44:51;1.67;;;0.80;;
22963;SDS011;11648;49.306;6.934;2023-04-23T12:47:21;1.37;;;0.70;;
22963;SDS011;11648;49.306;6.934;2023-04-23T12:49:48;3.90;;;1.00;;
22963;SDS011;11648;49.306;6.934;2023-04-23T12:52:19;3.50;;;0.93;;
22963;SDS011;11648;49.306;6.934;2023-04-23T12:54:46;2.50;;;1.00;;
22963;SDS011;11648;49.306;6.934;2023-04-23T12:57:17;3.77;;;0.90;;
22963;SDS011;11648;49.306;6.934;2023-04-23T12:59:47;2.13;;;0.80;;
22963;SDS011;11648;49.306;6.934;2023-04-23T13:02:14;1.40;;;0.80;;
22963;SDS011;11648;49.306;6.934;2023-04-23T13:04:41;1.97;;;0.80;;
22963;SDS011;11648;49.306;6.934;2023-04-23T13:07:08;2.00;;;0.80;;
22963;SDS011;11648;49.306;6.934;2023-04-23T13:09:35;3.40;;;0.80;;
22963;SDS011;11648;49.306;6.934;2023-04-23T13:12:02;1.43;;;0.70;;
22963;SDS011;11648;49.306;6.934;2023-04-23T13:14:28;1.03;;;0.70;;
22963;SDS011;11648;49.306;6.934;2023-04-23T13:16:57;1.27;;;0.70;;
22963;SDS011;11648;49.306;6.934;2023-04-23T13:19:24;4.90;;;0.93;;
22963;SDS011;11648;49.306;6.934;2023-04-23T13:21:50;1.67;;;0.80;;
22963;SDS011;11648;49.306;6.934;2023-04-23T13:24:17;1.47;;;0.70;;
22963;SDS011;11648;49.306;6.934;2023-04-23T13:26:44;1.83;;;0.70;;
22963;SDS011;11648;49.306;6.934;2023-04-23T13:29:10;2.63;;;0.70;;
22963;SDS011;11648;49.306;6.934;2023-04-23T13:31:37;3.77;;;0.70;;
22963;SDS011;11648;49.306;6.934;2023-04-23T13:34:04;2.00;;;0.80;;
22963;SDS011;11648;49.306;6.934;2023-04-23T13:36:30;1.97;;;0.80;;
22963;SDS011;11648;49.306;6.934;2023-04-23T13:38:57;2.17;;;0.70;;
22963;SDS011;11648;49.306;6.934;2023-04-23T13:41:24;2.00;;;0.70;;
22963;SDS011;11648;49.306;6.934;2023-04-23T13:43:50;1.83;;;0.63;;
22963;SDS011;11648;49.306;6.934;2023-04-23T13:46:18;1.47;;;0.73;;
22963;SDS011;11648;49.306;6.934;2023-04-23T13:48:45;1.30;;;0.70;;
22963;SDS011;11648;49.306;6.934;2023-04-23T13:51:11;3.70;;;0.73;;
22963;SDS011;11648;49.306;6.934;2023-04-23T13:53:58;1.30;;;0.60;;
22963;SDS011;11648;49.306;6.934;2023-04-23T13:56:28;1.83;;;0.80;;
22963;SDS011;11648;49.306;6.934;2023-04-23T13:58:56;2.00;;;0.73;;
22963;SDS011;11648;49.306;6.934;2023-04-23T14:01:44;1.33;;;0.63;;
22963;SDS011;11648;49.306;6.934;2023-04-23T14:04:13;1.70;;;0.80;;
22963;SDS011;11648;49.306;6.934;2023-04-23T14:06:41;1.77;;;0.87;;
22963;SDS011;11648;49.306;6.934;2023-04-23T14:09:08;1.93;;;0.77;;
22963;SDS011;11648;49.306;6.934;2023-04-23T14:11:35;1.50;;;0.60;;
22963;SDS011;11648;49.306;6.934;2023-04-23T14:14:02;1.83;;;0.70;;
22963;SDS011;11648;49.306;6.934;2023-04-23T14:16:29;2.97;;;0.80;;
22963;SDS011;11648;49.306;6.934;2023-04-23T14:18:56;1.83;;;0.70;;
22963;SDS011;11648;49.306;6.934;2023-04-23T14:21:23;3.77;;;2.33;;
22963;SDS011;11648;49.306;6.934;2023-04-23T14:23:54;1.20;;;0.50;;
22963;SDS011;11648;49.306;6.934;2023-04-23T14:32:06;2.27;;;1.43;;
22963;SDS011;11648;49.306;6.934;2023-04-23T14:34:33;2.77;;;1.30;;
22963;SDS011;11648;49.306;6.934;2023-04-23T14:37:02;2.57;;;1.87;;
22963;SDS011;11648;49.306;6.934;2023-04-23T14:39:29;14.37;;;12.83;;
22963;SDS011;11648;49.306;6.934;2023-04-23T14:41:56;1.10;;;0.70;;
22963;SDS011;11648;49.306;6.934;2023-04-23T14:44:23;1.10;;;0.70;;
22963;SDS011;11648;49.306;6.934;2023-04-23T14:46:52;2.87;;;1.20;;
22963;SDS011;11648;49.306;6.934;2023-04-23T14:49:18;1.50;;;0.60;;
22963;SDS011;11648;49.306;6.934;2023-04-23T14:51:49;0.87;;;0.50;;
22963;SDS011;11648;49.306;6.934;2023-04-23T14:54:19;1.60;;;0.80;;
22963;SDS011;11648;49.306;6.934;2023-04-23T14:56:47;1.20;;;0.53;;
22963;SDS011;11648;49.306;6.934;2023-04-23T14:59:13;1.53;;;0.60;;
22963;SDS011;11648;49.306;6.934;2023-04-23T15:01:40;3.00;;;1.80;;
22963;SDS011;11648;49.306;6.934;2023-04-23T15:04:08;2.60;;;0.70;;
22963;SDS011;11648;49.306;6.934;2023-04-23T15:06:36;1.40;;;0.80;;
22963;SDS011;11648;49.306;6.934;2023-04-23T15:09:03;1.10;;;0.50;;